Check out our new PWSWeather beta!
PWSweather.com
Personal Weather Stations
Station Observations
PICKERING
North Yorkshire, PickeringGB

North YorkshirePickeringGB

Lat: 54.2494, Lon: -0.7725

Elevation: 192

Station Type: Oregon Scientific WMR100

High Low Average
Temperature 78.3°F25.7°C 53.1°F11.7°C 64.0°F17.8°C
Dew Point 59.0°F15.0°C 46.4°F8.0°C 52.6°F11.4°C
Winds 11.7 mph 18.8 kmh Calm Calm 3.0 mph S4.8 kmh S
Wind Gusts 19.2 mph30.9 kmh -- 6.0 mph9.7 kmh
Humidity 78% 50% 66%
Pressure 29.65 in1004.1 mb 29.50 in999.0 mb -
Precipitation 0.00 in0.0 mm - -
Hour Temp Dew Point Humidity Winds Wind Gusts Pressure Precip Precip Rate Daily Precip Total
12:00 AM 58.1°F14.5°C 48.2°F9.0°C 69% 0.2 mph S0.3 kmh S 0.9 mph1.4 kmh 29.65 in1004.1 mb 0.00 in0.0 mm 0.00 in0.0 mm 0.00 in0.0 mm
12:05 AM 58.1°F14.5°C 48.2°F9.0°C 70% 0.3 mph ENE0.5 kmh ENE 1.6 mph2.6 kmh 29.65 in1004.1 mb 0.00 in0.0 mm 0.00 in0.0 mm 0.00 in0.0 mm
12:10 AM 57.9°F14.4°C 48.2°F9.0°C 70% 0.3 mph ENE0.5 kmh ENE 1.6 mph2.6 kmh 29.65 in1004.1 mb 0.00 in0.0 mm 0.00 in0.0 mm 0.00 in0.0 mm
12:15 AM 57.7°F14.3°C 48.2°F9.0°C 70% 0.2 mph ENE0.3 kmh ENE 1.1 mph1.8 kmh 29.65 in1004.1 mb 0.00 in0.0 mm 0.00 in0.0 mm 0.00 in0.0 mm
12:20 AM 57.6°F14.2°C 48.2°F9.0°C 70% 0.6 mph ENE1.0 kmh ENE 1.6 mph2.6 kmh 29.65 in1004.1 mb 0.00 in0.0 mm 0.00 in0.0 mm 0.00 in0.0 mm
12:25 AM 57.6°F14.2°C 48.2°F9.0°C 70% 0.5 mph ENE0.8 kmh ENE 1.6 mph2.6 kmh 29.65 in1004.1 mb 0.00 in0.0 mm 0.00 in0.0 mm 0.00 in0.0 mm
12:30 AM 57.4°F14.1°C 48.2°F9.0°C 71% 0.8 mph NE1.3 kmh NE 2.9 mph4.7 kmh 29.65 in1004.1 mb 0.00 in0.0 mm 0.00 in0.0 mm 0.00 in0.0 mm
12:35 AM 57.2°F14.0°C 48.2°F9.0°C 71% 0.6 mph NE1.0 kmh NE 2.9 mph4.7 kmh 29.65 in1004.1 mb 0.00 in0.0 mm 0.00 in0.0 mm 0.00 in0.0 mm
12:40 AM 57.0°F13.9°C 48.2°F9.0°C 71% 0.2 mph N0.3 kmh N 1.1 mph1.8 kmh 29.65 in1004.1 mb 0.00 in0.0 mm 0.00 in0.0 mm 0.00 in0.0 mm
12:45 AM 56.8°F13.8°C 48.2°F9.0°C 71% 0.1 mph NNW0.2 kmh NNW 1.1 mph1.8 kmh 29.65 in1004.1 mb 0.00 in0.0 mm 0.00 in0.0 mm 0.00 in0.0 mm
12:50 AM 56.7°F13.7°C 48.2°F9.0°C 71% Calm Calm -- 29.65 in1004.1 mb 0.00 in0.0 mm 0.00 in0.0 mm 0.00 in0.0 mm
12:55 AM 56.7°F13.7°C 48.2°F9.0°C 71% Calm Calm -- 29.65 in1004.1 mb 0.00 in0.0 mm 0.00 in0.0 mm 0.00 in0.0 mm
01:00 AM 56.3°F13.5°C 48.2°F9.0°C 71% 0.2 mph NNE0.3 kmh NNE 1.1 mph1.8 kmh 29.65 in1004.1 mb 0.00 in0.0 mm 0.00 in0.0 mm 0.00 in0.0 mm
01:05 AM 56.1°F13.4°C 48.2°F9.0°C 71% 0.5 mph N0.8 kmh N 2.2 mph3.5 kmh 29.65 in1004.1 mb 0.00 in0.0 mm 0.00 in0.0 mm 0.00 in0.0 mm
01:10 AM 55.9°F13.3°C 48.2°F9.0°C 71% 0.5 mph S0.8 kmh S 2.2 mph3.5 kmh 29.65 in1004.1 mb 0.00 in0.0 mm 0.00 in0.0 mm 0.00 in0.0 mm
01:15 AM 55.8°F13.2°C 48.2°F9.0°C 71% 0.2 mph S0.3 kmh S 1.3 mph2.1 kmh 29.65 in1004.1 mb 0.00 in0.0 mm 0.00 in0.0 mm 0.00 in0.0 mm
01:20 AM 55.8°F13.2°C 48.2°F9.0°C 72% 0.2 mph NNE0.3 kmh NNE 1.3 mph2.1 kmh 29.65 in1004.1 mb 0.00 in0.0 mm 0.00 in0.0 mm 0.00 in0.0 mm
01:25 AM 55.6°F13.1°C 48.2°F9.0°C 72% 0.2 mph NNE0.3 kmh NNE 1.3 mph2.1 kmh 29.65 in1004.1 mb 0.00 in0.0 mm 0.00 in0.0 mm 0.00 in0.0 mm
01:30 AM 55.6°F13.1°C 48.2°F9.0°C 72% 0.9 mph NNE1.4 kmh NNE 2.5 mph4.0 kmh 29.65 in1004.1 mb 0.00 in0.0 mm 0.00 in0.0 mm 0.00 in0.0 mm
01:35 AM 55.4°F13.0°C 48.2°F9.0°C 72% 1.6 mph NNE2.6 kmh NNE 2.7 mph4.3 kmh 29.65 in1004.1 mb 0.00 in0.0 mm 0.00 in0.0 mm 0.00 in0.0 mm
01:40 AM 55.4°F13.0°C 48.2°F9.0°C 72% 1.9 mph NNE3.1 kmh NNE 2.9 mph4.7 kmh 29.65 in1004.1 mb 0.00 in0.0 mm 0.00 in0.0 mm 0.00 in0.0 mm
01:45 AM 55.2°F12.9°C 48.2°F9.0°C 72% 1.0 mph NNE1.6 kmh NNE 2.9 mph4.7 kmh 29.65 in1004.1 mb 0.00 in0.0 mm 0.00 in0.0 mm 0.00 in0.0 mm
01:50 AM 55.0°F12.8°C 48.2°F9.0°C 72% 0.1 mph NNE0.2 kmh NNE 1.1 mph1.8 kmh 29.65 in1004.1 mb 0.00 in0.0 mm 0.00 in0.0 mm 0.00 in0.0 mm
01:55 AM 54.9°F12.7°C 46.4°F8.0°C 72% 0.1 mph NE0.2 kmh NE 1.1 mph1.8 kmh 29.65 in1004.1 mb 0.00 in0.0 mm 0.00 in0.0 mm 0.00 in0.0 mm
02:00 AM 54.9°F12.7°C 46.4°F8.0°C 72% 0.1 mph NE0.2 kmh NE 1.1 mph1.8 kmh 29.65 in1004.1 mb 0.00 in0.0 mm 0.00 in0.0 mm 0.00 in0.0 mm
02:05 AM 54.7°F12.6°C 46.4°F8.0°C 72% Calm Calm -- 29.65 in1004.1 mb 0.00 in0.0 mm 0.00 in0.0 mm 0.00 in0.0 mm
02:10 AM 54.5°F12.5°C 46.4°F8.0°C 73% 0.3 mph SSE0.5 kmh SSE 2.0 mph3.2 kmh 29.62 in1003.0 mb 0.00 in0.0 mm 0.00 in0.0 mm 0.00 in0.0 mm
02:15 AM 54.3°F12.4°C 46.4°F8.0°C 73% 0.7 mph S1.1 kmh S 2.9 mph4.7 kmh 29.62 in1003.0 mb 0.00 in0.0 mm 0.00 in0.0 mm 0.00 in0.0 mm
02:20 AM 54.3°F12.4°C 46.4°F8.0°C 73% 0.6 mph S1.0 kmh S 2.9 mph4.7 kmh 29.62 in1003.0 mb 0.00 in0.0 mm 0.00 in0.0 mm 0.00 in0.0 mm
02:25 AM 54.3°F12.4°C 46.4°F8.0°C 73% 0.1 mph SE0.2 kmh SE 0.9 mph1.4 kmh 29.62 in1003.0 mb 0.00 in0.0 mm 0.00 in0.0 mm 0.00 in0.0 mm
02:30 AM 54.1°F12.3°C 46.4°F8.0°C 73% Calm Calm -- 29.62 in1003.0 mb 0.00 in0.0 mm 0.00 in0.0 mm 0.00 in0.0 mm
02:35 AM 54.0°F12.2°C 46.4°F8.0°C 73% Calm Calm -- 29.62 in1003.0 mb 0.00 in0.0 mm 0.00 in0.0 mm 0.00 in0.0 mm
02:40 AM 54.1°F12.3°C 46.4°F8.0°C 73% 0.2 mph SSE0.3 kmh SSE 1.6 mph2.6 kmh 29.62 in1003.0 mb 0.00 in0.0 mm 0.00 in0.0 mm 0.00 in0.0 mm
02:45 AM 54.5°F12.5°C 48.2°F9.0°C 74% 1.0 mph SE1.6 kmh SE 3.6 mph5.8 kmh 29.62 in1003.0 mb 0.00 in0.0 mm 0.00 in0.0 mm 0.00 in0.0 mm
02:50 AM 54.5°F12.5°C 48.2°F9.0°C 74% 1.8 mph SSE2.9 kmh SSE 3.6 mph5.8 kmh 29.62 in1003.0 mb 0.00 in0.0 mm 0.00 in0.0 mm 0.00 in0.0 mm
02:55 AM 54.5°F12.5°C 48.2°F9.0°C 74% 1.6 mph S2.6 kmh S 3.6 mph5.8 kmh 29.62 in1003.0 mb 0.00 in0.0 mm 0.00 in0.0 mm 0.00 in0.0 mm
03:00 AM 54.3°F12.4°C 46.4°F8.0°C 74% 0.6 mph S1.0 kmh S 2.0 mph3.2 kmh 29.62 in1003.0 mb 0.00 in0.0 mm 0.00 in0.0 mm 0.00 in0.0 mm
03:05 AM 54.0°F12.2°C 46.4°F8.0°C 74% 0.4 mph SSE0.6 kmh SSE 1.3 mph2.1 kmh 29.62 in1003.0 mb 0.00 in0.0 mm 0.00 in0.0 mm 0.00 in0.0 mm
03:10 AM 54.0°F12.2°C 46.4°F8.0°C 74% 0.8 mph SSE1.3 kmh SSE 2.0 mph3.2 kmh 29.62 in1003.0 mb 0.00 in0.0 mm 0.00 in0.0 mm 0.00 in0.0 mm
03:15 AM 54.0°F12.2°C 46.4°F8.0°C 74% 0.8 mph SSE1.3 kmh SSE 2.0 mph3.2 kmh 29.62 in1003.0 mb 0.00 in0.0 mm 0.00 in0.0 mm 0.00 in0.0 mm
03:20 AM 53.8°F12.1°C 46.4°F8.0°C 74% 0.4 mph SSW0.6 kmh SSW 1.3 mph2.1 kmh 29.62 in1003.0 mb 0.00 in0.0 mm 0.00 in0.0 mm 0.00 in0.0 mm
03:25 AM 53.8°F12.1°C 46.4°F8.0°C 74% 0.8 mph SSW1.3 kmh SSW 2.2 mph3.5 kmh 29.62 in1003.0 mb 0.00 in0.0 mm 0.00 in0.0 mm 0.00 in0.0 mm
03:30 AM 53.6°F12.0°C 46.4°F8.0°C 74% 0.8 mph SSW1.3 kmh SSW 2.2 mph3.5 kmh 29.62 in1003.0 mb 0.00 in0.0 mm 0.00 in0.0 mm 0.00 in0.0 mm
03:35 AM 53.6°F12.0°C 46.4°F8.0°C 75% 0.2 mph SSW0.3 kmh SSW 1.1 mph1.8 kmh 29.62 in1003.0 mb 0.00 in0.0 mm 0.00 in0.0 mm 0.00 in0.0 mm
03:40 AM 53.4°F11.9°C 46.4°F8.0°C 75% Calm Calm -- 29.62 in1003.0 mb 0.00 in0.0 mm 0.00 in0.0 mm 0.00 in0.0 mm
03:45 AM 53.2°F11.8°C 46.4°F8.0°C 75% 0.3 mph WSW0.5 kmh WSW 2.2 mph3.5 kmh 29.62 in1003.0 mb 0.00 in0.0 mm 0.00 in0.0 mm 0.00 in0.0 mm
03:50 AM 53.2°F11.8°C 46.4°F8.0°C 75% 0.7 mph WSW1.1 kmh WSW 2.5 mph4.0 kmh 29.62 in1003.0 mb 0.00 in0.0 mm 0.00 in0.0 mm 0.00 in0.0 mm
03:55 AM 53.2°F11.8°C 46.4°F8.0°C 75% 0.6 mph WSW1.0 kmh WSW 2.5 mph4.0 kmh 29.62 in1003.0 mb 0.00 in0.0 mm 0.00 in0.0 mm 0.00 in0.0 mm
04:00 AM 53.2°F11.8°C 46.4°F8.0°C 75% 0.4 mph W0.6 kmh W 2.5 mph4.0 kmh 29.62 in1003.0 mb 0.00 in0.0 mm 0.00 in0.0 mm 0.00 in0.0 mm
04:05 AM 53.1°F11.7°C 46.4°F8.0°C 75% 0.2 mph W0.3 kmh W 1.1 mph1.8 kmh 29.62 in1003.0 mb 0.00 in0.0 mm 0.00 in0.0 mm 0.00 in0.0 mm
04:10 AM 53.1°F11.7°C 46.4°F8.0°C 75% 0.4 mph NW0.6 kmh NW 1.1 mph1.8 kmh 29.62 in1003.0 mb 0.00 in0.0 mm 0.00 in0.0 mm 0.00 in0.0 mm
04:15 AM 53.1°F11.7°C 46.4°F8.0°C 76% 0.4 mph NNW0.6 kmh NNW 1.1 mph1.8 kmh 29.62 in1003.0 mb 0.00 in0.0 mm 0.00 in0.0 mm 0.00 in0.0 mm
04:20 AM 53.2°F11.8°C 46.4°F8.0°C 76% 0.1 mph NW0.2 kmh NW 0.9 mph1.4 kmh 29.62 in1003.0 mb 0.00 in0.0 mm 0.00 in0.0 mm 0.00 in0.0 mm
04:25 AM 53.4°F11.9°C 46.4°F8.0°C 76% 0.1 mph NW0.2 kmh NW 0.9 mph1.4 kmh 29.62 in1003.0 mb 0.00 in0.0 mm 0.00 in0.0 mm 0.00 in0.0 mm
04:30 AM 53.6°F12.0°C 46.4°F8.0°C 76% 0.1 mph WSW0.2 kmh WSW 1.6 mph2.6 kmh 29.62 in1003.0 mb 0.00 in0.0 mm 0.00 in0.0 mm 0.00 in0.0 mm
04:35 AM 53.8°F12.1°C 48.2°F9.0°C 77% 0.1 mph WSW0.2 kmh WSW 1.6 mph2.6 kmh 29.62 in1003.0 mb 0.00 in0.0 mm 0.00 in0.0 mm 0.00 in0.0 mm
04:40 AM 54.0°F12.2°C 48.2°F9.0°C 77% 0.5 mph NW0.8 kmh NW 2.0 mph3.2 kmh 29.62 in1003.0 mb 0.00 in0.0 mm 0.00 in0.0 mm 0.00 in0.0 mm
04:45 AM 54.1°F12.3°C 48.2°F9.0°C 77% 0.6 mph NW1.0 kmh NW 2.0 mph3.2 kmh 29.62 in1003.0 mb 0.00 in0.0 mm 0.00 in0.0 mm 0.00 in0.0 mm
04:50 AM 54.1°F12.3°C 48.2°F9.0°C 77% 0.1 mph NNW0.2 kmh NNW 1.1 mph1.8 kmh 29.62 in1003.0 mb 0.00 in0.0 mm 0.00 in0.0 mm 0.00 in0.0 mm
04:55 AM 54.3°F12.4°C 48.2°F9.0°C 77% Calm Calm -- 29.62 in1003.0 mb 0.00 in0.0 mm 0.00 in0.0 mm 0.00 in0.0 mm
05:00 AM 54.5°F12.5°C 48.2°F9.0°C 77% Calm Calm -- 29.62 in1003.0 mb 0.00 in0.0 mm 0.00 in0.0 mm 0.00 in0.0 mm
05:05 AM 54.7°F12.6°C 48.2°F9.0°C 77% Calm Calm -- 29.62 in1003.0 mb 0.00 in0.0 mm 0.00 in0.0 mm 0.00 in0.0 mm
05:10 AM 54.7°F12.6°C 48.2°F9.0°C 78% 0.3 mph SW0.5 kmh SW 2.0 mph3.2 kmh 29.62 in1003.0 mb 0.00 in0.0 mm 0.00 in0.0 mm 0.00 in0.0 mm
05:15 AM 54.9°F12.7°C 48.2°F9.0°C 78% 0.3 mph SW0.5 kmh SW 2.0 mph3.2 kmh 29.62 in1003.0 mb 0.00 in0.0 mm 0.00 in0.0 mm 0.00 in0.0 mm
05:20 AM 54.9°F12.7°C 48.2°F9.0°C 78% Calm Calm -- 29.62 in1003.0 mb 0.00 in0.0 mm 0.00 in0.0 mm 0.00 in0.0 mm
05:25 AM 55.0°F12.8°C 48.2°F9.0°C 78% Calm Calm -- 29.62 in1003.0 mb 0.00 in0.0 mm 0.00 in0.0 mm 0.00 in0.0 mm
05:30 AM 55.2°F12.9°C 48.2°F9.0°C 78% 0.4 mph N0.6 kmh N 1.6 mph2.6 kmh 29.62 in1003.0 mb 0.00 in0.0 mm 0.00 in0.0 mm 0.00 in0.0 mm
05:35 AM 55.4°F13.0°C 48.2°F9.0°C 78% 0.5 mph N0.8 kmh N 1.6 mph2.6 kmh 29.62 in1003.0 mb 0.00 in0.0 mm 0.00 in0.0 mm 0.00 in0.0 mm
05:40 AM 55.6°F13.1°C 48.2°F9.0°C 78% 0.7 mph ENE1.1 kmh ENE 1.6 mph2.6 kmh 29.62 in1003.0 mb 0.00 in0.0 mm 0.00 in0.0 mm 0.00 in0.0 mm
05:45 AM 55.9°F13.3°C 50.0°F10.0°C 78% 0.7 mph E1.1 kmh E 1.6 mph2.6 kmh 29.62 in1003.0 mb 0.00 in0.0 mm 0.00 in0.0 mm 0.00 in0.0 mm
05:50 AM 56.1°F13.4°C 50.0°F10.0°C 78% 0.4 mph SSE0.6 kmh SSE 1.6 mph2.6 kmh 29.62 in1003.0 mb 0.00 in0.0 mm 0.00 in0.0 mm 0.00 in0.0 mm
05:55 AM 56.3°F13.5°C 50.0°F10.0°C 78% 0.4 mph S0.6 kmh S 2.0 mph3.2 kmh 29.62 in1003.0 mb 0.00 in0.0 mm 0.00 in0.0 mm 0.00 in0.0 mm
06:00 AM 56.3°F13.5°C 50.0°F10.0°C 78% 0.8 mph SSE1.3 kmh SSE 2.2 mph3.5 kmh 29.62 in1003.0 mb 0.00 in0.0 mm 0.00 in0.0 mm 0.00 in0.0 mm
06:05 AM 56.3°F13.5°C 50.0°F10.0°C 78% 1.3 mph SSE2.1 kmh SSE 2.2 mph3.5 kmh 29.62 in1003.0 mb 0.00 in0.0 mm 0.00 in0.0 mm 0.00 in0.0 mm
06:10 AM 56.7°F13.7°C 50.0°F10.0°C 78% 1.7 mph S2.7 kmh S 3.8 mph6.1 kmh 29.62 in1003.0 mb 0.00 in0.0 mm 0.00 in0.0 mm 0.00 in0.0 mm
06:15 AM 57.2°F14.0°C 50.0°F10.0°C 78% 1.5 mph SSW2.4 kmh SSW 3.8 mph6.1 kmh 29.62 in1003.0 mb 0.00 in0.0 mm 0.00 in0.0 mm 0.00 in0.0 mm
06:20 AM 57.4°F14.1°C 50.0°F10.0°C 78% 1.1 mph SW1.8 kmh SW 2.5 mph4.0 kmh 29.62 in1003.0 mb 0.00 in0.0 mm 0.00 in0.0 mm 0.00 in0.0 mm
06:25 AM 57.7°F14.3°C 51.8°F11.0°C 77% 1.0 mph S1.6 kmh S 2.0 mph3.2 kmh 29.62 in1003.0 mb 0.00 in0.0 mm 0.00 in0.0 mm 0.00 in0.0 mm
06:30 AM 57.9°F14.4°C 51.8°F11.0°C 77% 0.7 mph S1.1 kmh S 1.3 mph2.1 kmh 29.62 in1003.0 mb 0.00 in0.0 mm 0.00 in0.0 mm 0.00 in0.0 mm
06:35 AM 58.1°F14.5°C 51.8°F11.0°C 77% 0.4 mph SW0.6 kmh SW 1.3 mph2.1 kmh 29.62 in1003.0 mb 0.00 in0.0 mm 0.00 in0.0 mm 0.00 in0.0 mm
06:40 AM 57.9°F14.4°C 51.8°F11.0°C 77% 1.5 mph SSW2.4 kmh SSW 3.1 mph5.0 kmh 29.62 in1003.0 mb 0.00 in0.0 mm 0.00 in0.0 mm 0.00 in0.0 mm
06:45 AM 57.9°F14.4°C 51.8°F11.0°C 77% 1.9 mph S3.1 kmh S 3.1 mph5.0 kmh 29.62 in1003.0 mb 0.00 in0.0 mm 0.00 in0.0 mm 0.00 in0.0 mm
06:50 AM 58.1°F14.5°C 51.8°F11.0°C 77% 2.1 mph S3.4 kmh S 3.6 mph5.8 kmh 29.62 in1003.0 mb 0.00 in0.0 mm 0.00 in0.0 mm 0.00 in0.0 mm
06:55 AM 58.3°F14.6°C 51.8°F11.0°C 76% 2.9 mph S4.7 kmh S 6.0 mph9.7 kmh 29.62 in1003.0 mb 0.00 in0.0 mm 0.00 in0.0 mm 0.00 in0.0 mm
07:00 AM 58.5°F14.7°C 51.8°F11.0°C 76% 3.2 mph S5.1 kmh S 6.0 mph9.7 kmh 29.62 in1003.0 mb 0.00 in0.0 mm 0.00 in0.0 mm 0.00 in0.0 mm
07:05 AM 58.6°F14.8°C 51.8°F11.0°C 76% 3.4 mph S5.5 kmh S 6.7 mph10.8 kmh 29.62 in1003.0 mb 0.00 in0.0 mm 0.00 in0.0 mm 0.00 in0.0 mm
07:10 AM 59.0°F15.0°C 51.8°F11.0°C 76% 3.5 mph S5.6 kmh S 6.7 mph10.8 kmh 29.62 in1003.0 mb 0.00 in0.0 mm 0.00 in0.0 mm 0.00 in0.0 mm
07:15 AM 59.2°F15.1°C 51.8°F11.0°C 76% 3.6 mph S5.8 kmh S 6.7 mph10.8 kmh 29.62 in1003.0 mb 0.00 in0.0 mm 0.00 in0.0 mm 0.00 in0.0 mm
07:20 AM 59.4°F15.2°C 51.8°F11.0°C 75% 4.1 mph SSW6.6 kmh SSW 6.3 mph10.1 kmh 29.62 in1003.0 mb 0.00 in0.0 mm 0.00 in0.0 mm 0.00 in0.0 mm
07:25 AM 59.7°F15.4°C 51.8°F11.0°C 75% 4.4 mph S7.1 kmh S 6.3 mph10.1 kmh 29.62 in1003.0 mb 0.00 in0.0 mm 0.00 in0.0 mm 0.00 in0.0 mm
07:30 AM 60.1°F15.6°C 53.6°F12.0°C 75% 4.7 mph S7.6 kmh S 7.6 mph12.2 kmh 29.62 in1003.0 mb 0.00 in0.0 mm 0.00 in0.0 mm 0.00 in0.0 mm
07:35 AM 60.6°F15.9°C 53.6°F12.0°C 75% 4.9 mph SSW7.9 kmh SSW 8.1 mph13.0 kmh 29.62 in1003.0 mb 0.00 in0.0 mm 0.00 in0.0 mm 0.00 in0.0 mm
07:40 AM 61.2°F16.2°C 53.6°F12.0°C 75% 4.7 mph S7.6 kmh S 8.1 mph13.0 kmh 29.62 in1003.0 mb 0.00 in0.0 mm 0.00 in0.0 mm 0.00 in0.0 mm
07:45 AM 61.7°F16.5°C 55.4°F13.0°C 75% 4.6 mph S7.4 kmh S 8.1 mph13.0 kmh 29.62 in1003.0 mb 0.00 in0.0 mm 0.00 in0.0 mm 0.00 in0.0 mm
07:50 AM 61.9°F16.6°C 53.6°F12.0°C 74% 4.1 mph S6.6 kmh S 10.1 mph16.3 kmh 29.62 in1003.0 mb 0.00 in0.0 mm 0.00 in0.0 mm 0.00 in0.0 mm
07:55 AM 62.6°F17.0°C 55.4°F13.0°C 74% 4.2 mph S6.8 kmh S 10.1 mph16.3 kmh 29.62 in1003.0 mb 0.00 in0.0 mm 0.00 in0.0 mm 0.00 in0.0 mm
08:00 AM 63.1°F17.3°C 55.4°F13.0°C 73% 4.2 mph S6.8 kmh S 7.6 mph12.2 kmh 29.62 in1003.0 mb 0.00 in0.0 mm 0.00 in0.0 mm 0.00 in0.0 mm
08:05 AM 64.0°F17.8°C 55.4°F13.0°C 73% 4.3 mph S6.9 kmh S 7.6 mph12.2 kmh 29.62 in1003.0 mb 0.00 in0.0 mm 0.00 in0.0 mm 0.00 in0.0 mm
08:10 AM 63.7°F17.6°C 55.4°F13.0°C 72% 4.4 mph SSW7.1 kmh SSW 6.3 mph10.1 kmh 29.59 in1002.0 mb 0.00 in0.0 mm 0.00 in0.0 mm 0.00 in0.0 mm
08:15 AM 64.4°F18.0°C 55.4°F13.0°C 71% 3.9 mph SW6.3 kmh SW 5.8 mph9.3 kmh 29.59 in1002.0 mb 0.00 in0.0 mm 0.00 in0.0 mm 0.00 in0.0 mm
08:20 AM 64.4°F18.0°C 55.4°F13.0°C 71% 3.1 mph SW5.0 kmh SW 5.8 mph9.3 kmh 29.59 in1002.0 mb 0.00 in0.0 mm 0.00 in0.0 mm 0.00 in0.0 mm
08:25 AM 64.6°F18.1°C 55.4°F13.0°C 70% 3.0 mph SSW4.8 kmh SSW 5.4 mph8.7 kmh 29.59 in1002.0 mb 0.00 in0.0 mm 0.00 in0.0 mm 0.00 in0.0 mm
08:30 AM 64.6°F18.1°C 55.4°F13.0°C 70% 4.0 mph SW6.4 kmh SW 6.3 mph10.1 kmh 29.59 in1002.0 mb 0.00 in0.0 mm 0.00 in0.0 mm 0.00 in0.0 mm
08:35 AM 64.9°F18.3°C 55.4°F13.0°C 70% 4.0 mph SW6.4 kmh SW 6.3 mph10.1 kmh 29.59 in1002.0 mb 0.00 in0.0 mm 0.00 in0.0 mm 0.00 in0.0 mm
08:40 AM 64.9°F18.3°C 55.4°F13.0°C 69% 4.4 mph SW7.1 kmh SW 6.5 mph10.5 kmh 29.59 in1002.0 mb 0.00 in0.0 mm 0.00 in0.0 mm 0.00 in0.0 mm
08:45 AM 65.7°F18.7°C 55.4°F13.0°C 69% 4.5 mph SSW7.2 kmh SSW 7.6 mph12.2 kmh 29.59 in1002.0 mb 0.00 in0.0 mm 0.00 in0.0 mm 0.00 in0.0 mm
08:50 AM 66.4°F19.1°C 55.4°F13.0°C 67% 5.1 mph SW8.2 kmh SW 8.5 mph13.7 kmh 29.59 in1002.0 mb 0.00 in0.0 mm 0.00 in0.0 mm 0.00 in0.0 mm
08:55 AM 67.5°F19.7°C 55.4°F13.0°C 67% 5.3 mph SW8.5 kmh SW 8.5 mph13.7 kmh 29.59 in1002.0 mb 0.00 in0.0 mm 0.00 in0.0 mm 0.00 in0.0 mm
09:00 AM 67.3°F19.6°C 55.4°F13.0°C 67% 4.2 mph SSW6.8 kmh SSW 7.6 mph12.2 kmh 29.59 in1002.0 mb 0.00 in0.0 mm 0.00 in0.0 mm 0.00 in0.0 mm
09:05 AM 68.0°F20.0°C 55.4°F13.0°C 65% 3.7 mph SW6.0 kmh SW 7.6 mph12.2 kmh 29.59 in1002.0 mb 0.00 in0.0 mm 0.00 in0.0 mm 0.00 in0.0 mm
09:10 AM 67.6°F19.8°C 55.4°F13.0°C 66% 4.9 mph SW7.9 kmh SW 8.9 mph14.3 kmh 29.59 in1002.0 mb 0.00 in0.0 mm 0.00 in0.0 mm 0.00 in0.0 mm
09:15 AM 68.7°F20.4°C 57.2°F14.0°C 65% 5.7 mph SW9.2 kmh SW 8.9 mph14.3 kmh 29.59 in1002.0 mb 0.00 in0.0 mm 0.00 in0.0 mm 0.00 in0.0 mm
09:20 AM 68.7°F20.4°C 55.4°F13.0°C 64% 5.7 mph SSW9.2 kmh SSW 7.6 mph12.2 kmh 29.59 in1002.0 mb 0.00 in0.0 mm 0.00 in0.0 mm 0.00 in0.0 mm
09:25 AM 68.2°F20.1°C 55.4°F13.0°C 64% 5.3 mph S8.5 kmh S 8.1 mph13.0 kmh 29.59 in1002.0 mb 0.00 in0.0 mm 0.00 in0.0 mm 0.00 in0.0 mm
09:30 AM 68.9°F20.5°C 55.4°F13.0°C 63% 5.9 mph S9.5 kmh S 12.3 mph19.8 kmh 29.59 in1002.0 mb 0.00 in0.0 mm 0.00 in0.0 mm 0.00 in0.0 mm
09:35 AM 68.4°F20.2°C 55.4°F13.0°C 63% 5.6 mph S9.0 kmh S 12.3 mph19.8 kmh 29.59 in1002.0 mb 0.00 in0.0 mm 0.00 in0.0 mm 0.00 in0.0 mm
09:40 AM 68.0°F20.0°C 55.4°F13.0°C 63% 6.1 mph S9.8 kmh S 13.6 mph21.9 kmh 29.59 in1002.0 mb 0.00 in0.0 mm 0.00 in0.0 mm 0.00 in0.0 mm
09:45 AM 70.2°F21.2°C 57.2°F14.0°C 62% 6.7 mph SSW10.8 kmh SSW 13.6 mph21.9 kmh 29.59 in1002.0 mb 0.00 in0.0 mm 0.00 in0.0 mm 0.00 in0.0 mm
09:50 AM 70.5°F21.4°C 55.4°F13.0°C 61% 5.5 mph SW8.9 kmh SW 11.4 mph18.3 kmh 29.59 in1002.0 mb 0.00 in0.0 mm 0.00 in0.0 mm 0.00 in0.0 mm
09:55 AM 71.2°F21.8°C 57.2°F14.0°C 60% 5.9 mph SSW9.5 kmh SSW 11.4 mph18.3 kmh 29.59 in1002.0 mb 0.00 in0.0 mm 0.00 in0.0 mm 0.00 in0.0 mm
10:00 AM 72.7°F22.6°C 57.2°F14.0°C 58% 5.8 mph SSW9.3 kmh SSW 8.7 mph14.0 kmh 29.59 in1002.0 mb 0.00 in0.0 mm 0.00 in0.0 mm 0.00 in0.0 mm
10:05 AM 73.8°F23.2°C 57.2°F14.0°C 57% 5.8 mph S9.3 kmh S 7.4 mph11.9 kmh 29.59 in1002.0 mb 0.00 in0.0 mm 0.00 in0.0 mm 0.00 in0.0 mm
10:10 AM 73.8°F23.2°C 57.2°F14.0°C 57% 5.6 mph S9.0 kmh S 7.8 mph12.6 kmh 29.59 in1002.0 mb 0.00 in0.0 mm 0.00 in0.0 mm 0.00 in0.0 mm
10:15 AM 73.4°F23.0°C 57.2°F14.0°C 58% 5.6 mph SSW9.0 kmh SSW 7.8 mph12.6 kmh 29.59 in1002.0 mb 0.00 in0.0 mm 0.00 in0.0 mm 0.00 in0.0 mm
10:20 AM 71.4°F21.9°C 55.4°F13.0°C 58% 4.7 mph SW7.6 kmh SW 7.4 mph11.9 kmh 29.59 in1002.0 mb 0.00 in0.0 mm 0.00 in0.0 mm 0.00 in0.0 mm
10:25 AM 73.6°F23.1°C 57.2°F14.0°C 57% 6.1 mph SW9.8 kmh SW 13.2 mph21.2 kmh 29.59 in1002.0 mb 0.00 in0.0 mm 0.00 in0.0 mm 0.00 in0.0 mm
10:30 AM 74.8°F23.8°C 57.2°F14.0°C 56% 6.6 mph SW10.6 kmh SW 13.2 mph21.2 kmh 29.59 in1002.0 mb 0.00 in0.0 mm 0.00 in0.0 mm 0.00 in0.0 mm
10:35 AM 74.7°F23.7°C 57.2°F14.0°C 55% 5.4 mph SW8.7 kmh SW 7.2 mph11.6 kmh 29.59 in1002.0 mb 0.00 in0.0 mm 0.00 in0.0 mm 0.00 in0.0 mm
10:40 AM 75.6°F24.2°C 59.0°F15.0°C 54% 6.0 mph SSW9.7 kmh SSW 9.8 mph15.8 kmh 29.59 in1002.0 mb 0.00 in0.0 mm 0.00 in0.0 mm 0.00 in0.0 mm
10:45 AM 76.5°F24.7°C 59.0°F15.0°C 53% 6.3 mph SSW10.1 kmh SSW 12.3 mph19.8 kmh 29.59 in1002.0 mb 0.00 in0.0 mm 0.00 in0.0 mm 0.00 in0.0 mm
10:50 AM 75.9°F24.4°C 57.2°F14.0°C 53% 6.5 mph SSW10.5 kmh SSW 12.3 mph19.8 kmh 29.59 in1002.0 mb 0.00 in0.0 mm 0.00 in0.0 mm 0.00 in0.0 mm
10:55 AM 75.2°F24.0°C 57.2°F14.0°C 53% 7.8 mph SSW12.6 kmh SSW 10.5 mph16.9 kmh 29.59 in1002.0 mb 0.00 in0.0 mm 0.00 in0.0 mm 0.00 in0.0 mm
11:00 AM 75.7°F24.3°C 57.2°F14.0°C 53% 8.5 mph SSW13.7 kmh SSW 11.2 mph18.0 kmh 29.59 in1002.0 mb 0.00 in0.0 mm 0.00 in0.0 mm 0.00 in0.0 mm
11:05 AM 78.3°F25.7°C 59.0°F15.0°C 52% 7.3 mph SSW11.7 kmh SSW 11.2 mph18.0 kmh 29.59 in1002.0 mb 0.00 in0.0 mm 0.00 in0.0 mm 0.00 in0.0 mm
11:10 AM 77.5°F25.3°C 59.0°F15.0°C 52% 7.1 mph SSW11.4 kmh SSW 11.9 mph19.2 kmh 29.59 in1002.0 mb 0.00 in0.0 mm 0.00 in0.0 mm 0.00 in0.0 mm
11:15 AM 73.9°F23.3°C 57.2°F14.0°C 54% 7.2 mph SW11.6 kmh SW 11.9 mph19.2 kmh 29.59 in1002.0 mb 0.00 in0.0 mm 0.00 in0.0 mm 0.00 in0.0 mm
11:20 AM 73.2°F22.9°C 55.4°F13.0°C 54% 6.3 mph SSW10.1 kmh SSW 11.9 mph19.2 kmh 29.59 in1002.0 mb 0.00 in0.0 mm 0.00 in0.0 mm 0.00 in0.0 mm
11:25 AM 72.5°F22.5°C 55.4°F13.0°C 54% 7.6 mph S12.2 kmh S 11.9 mph19.2 kmh 29.59 in1002.0 mb 0.00 in0.0 mm 0.00 in0.0 mm 0.00 in0.0 mm
11:30 AM 72.5°F22.5°C 55.4°F13.0°C 54% 6.2 mph SSW10.0 kmh SSW 11.9 mph19.2 kmh 29.59 in1002.0 mb 0.00 in0.0 mm 0.00 in0.0 mm 0.00 in0.0 mm
11:35 AM 72.7°F22.6°C 55.4°F13.0°C 54% 4.2 mph SSW6.8 kmh SSW 6.5 mph10.5 kmh 29.59 in1002.0 mb 0.00 in0.0 mm 0.00 in0.0 mm 0.00 in0.0 mm
11:40 AM 74.1°F23.4°C 55.4°F13.0°C 53% 3.8 mph SSW6.1 kmh SSW 6.5 mph10.5 kmh 29.56 in1001.0 mb 0.00 in0.0 mm 0.00 in0.0 mm 0.00 in0.0 mm
11:45 AM 74.8°F23.8°C 57.2°F14.0°C 53% 4.1 mph S6.6 kmh S 7.8 mph12.6 kmh 29.56 in1001.0 mb 0.00 in0.0 mm 0.00 in0.0 mm 0.00 in0.0 mm
11:50 AM 73.4°F23.0°C 55.4°F13.0°C 53% 5.2 mph S8.4 kmh S 8.5 mph13.7 kmh 29.56 in1001.0 mb 0.00 in0.0 mm 0.00 in0.0 mm 0.00 in0.0 mm
11:55 AM 72.7°F22.6°C 55.4°F13.0°C 54% 5.0 mph SSW8.0 kmh SSW 8.5 mph13.7 kmh 29.56 in1001.0 mb 0.00 in0.0 mm 0.00 in0.0 mm 0.00 in0.0 mm
12:00 PM 72.1°F22.3°C 55.4°F13.0°C 54% 4.8 mph SW7.7 kmh SW 8.5 mph13.7 kmh 29.56 in1001.0 mb 0.00 in0.0 mm 0.00 in0.0 mm 0.00 in0.0 mm
12:05 PM 72.3°F22.4°C 55.4°F13.0°C 54% 5.3 mph SSW8.5 kmh SSW 8.1 mph13.0 kmh 29.56 in1001.0 mb 0.00 in0.0 mm 0.00 in0.0 mm 0.00 in0.0 mm
12:10 PM 72.3°F22.4°C 55.4°F13.0°C 54% 5.2 mph S8.4 kmh S 9.4 mph15.1 kmh 29.56 in1001.0 mb 0.00 in0.0 mm 0.00 in0.0 mm 0.00 in0.0 mm
12:15 PM 72.1°F22.3°C 55.4°F13.0°C 54% 4.7 mph S7.6 kmh S 9.4 mph15.1 kmh 29.56 in1001.0 mb 0.00 in0.0 mm 0.00 in0.0 mm 0.00 in0.0 mm
12:20 PM 72.1°F22.3°C 55.4°F13.0°C 54% 4.6 mph S7.4 kmh S 6.3 mph10.1 kmh 29.56 in1001.0 mb 0.00 in0.0 mm 0.00 in0.0 mm 0.00 in0.0 mm
12:25 PM 72.5°F22.5°C 55.4°F13.0°C 53% 5.5 mph S8.9 kmh S 11.9 mph19.2 kmh 29.56 in1001.0 mb 0.00 in0.0 mm 0.00 in0.0 mm 0.00 in0.0 mm
12:30 PM 73.0°F22.8°C 55.4°F13.0°C 53% 7.1 mph S11.4 kmh S 11.9 mph19.2 kmh 29.56 in1001.0 mb 0.00 in0.0 mm 0.00 in0.0 mm 0.00 in0.0 mm
12:35 PM 73.4°F23.0°C 55.4°F13.0°C 52% 6.1 mph SSW9.8 kmh SSW 10.1 mph16.3 kmh 29.56 in1001.0 mb 0.00 in0.0 mm 0.00 in0.0 mm 0.00 in0.0 mm
12:40 PM 73.8°F23.2°C 55.4°F13.0°C 52% 4.8 mph S7.7 kmh S 10.1 mph16.3 kmh 29.56 in1001.0 mb 0.00 in0.0 mm 0.00 in0.0 mm 0.00 in0.0 mm
12:45 PM 73.6°F23.1°C 55.4°F13.0°C 52% 4.6 mph S7.4 kmh S 10.1 mph16.3 kmh 29.56 in1001.0 mb 0.00 in0.0 mm 0.00 in0.0 mm 0.00 in0.0 mm
12:50 PM 72.9°F22.7°C 55.4°F13.0°C 53% 5.9 mph S9.5 kmh S 10.1 mph16.3 kmh 29.56 in1001.0 mb 0.00 in0.0 mm 0.00 in0.0 mm 0.00 in0.0 mm
12:55 PM 72.9°F22.7°C 55.4°F13.0°C 53% 6.0 mph SSW9.7 kmh SSW 10.1 mph16.3 kmh 29.56 in1001.0 mb 0.00 in0.0 mm 0.00 in0.0 mm 0.00 in0.0 mm
01:00 PM 72.7°F22.6°C 55.4°F13.0°C 53% 3.9 mph SW6.3 kmh SW 6.5 mph10.5 kmh 29.56 in1001.0 mb 0.00 in0.0 mm 0.00 in0.0 mm 0.00 in0.0 mm
01:05 PM 72.3°F22.4°C 55.4°F13.0°C 53% 3.3 mph SSW5.3 kmh SSW 4.0 mph6.4 kmh 29.56 in1001.0 mb 0.00 in0.0 mm 0.00 in0.0 mm 0.00 in0.0 mm
01:10 PM 72.0°F22.2°C 55.4°F13.0°C 53% 3.3 mph SW5.3 kmh SW 8.1 mph13.0 kmh 29.56 in1001.0 mb 0.00 in0.0 mm 0.00 in0.0 mm 0.00 in0.0 mm
01:15 PM 72.1°F22.3°C 55.4°F13.0°C 54% 3.8 mph SW6.1 kmh SW 8.1 mph13.0 kmh 29.56 in1001.0 mb 0.00 in0.0 mm 0.00 in0.0 mm 0.00 in0.0 mm
01:20 PM 72.1°F22.3°C 55.4°F13.0°C 53% 4.3 mph SW6.9 kmh SW 7.4 mph11.9 kmh 29.56 in1001.0 mb 0.00 in0.0 mm 0.00 in0.0 mm 0.00 in0.0 mm
01:25 PM 72.0°F22.2°C 55.4°F13.0°C 53% 3.6 mph SW5.8 kmh SW 7.4 mph11.9 kmh 29.53 in1000.0 mb 0.00 in0.0 mm 0.00 in0.0 mm 0.00 in0.0 mm
01:30 PM 71.1°F21.7°C 55.4°F13.0°C 57% 3.6 mph WSW5.8 kmh WSW 7.2 mph11.6 kmh 29.53 in1000.0 mb 0.00 in0.0 mm 0.00 in0.0 mm 0.00 in0.0 mm
01:35 PM 72.9°F22.7°C 57.2°F14.0°C 57% 3.4 mph WSW5.5 kmh WSW 7.2 mph11.6 kmh 29.53 in1000.0 mb 0.00 in0.0 mm 0.00 in0.0 mm 0.00 in0.0 mm
01:40 PM 74.5°F23.6°C 59.0°F15.0°C 57% 2.7 mph SW4.3 kmh SW 5.6 mph9.0 kmh 29.53 in1000.0 mb 0.00 in0.0 mm 0.00 in0.0 mm 0.00 in0.0 mm
01:45 PM 75.2°F24.0°C 57.2°F14.0°C 54% 3.8 mph SSW6.1 kmh SSW 6.3 mph10.1 kmh 29.53 in1000.0 mb 0.00 in0.0 mm 0.00 in0.0 mm 0.00 in0.0 mm
01:50 PM 74.8°F23.8°C 57.2°F14.0°C 55% 3.8 mph SSW6.1 kmh SSW 6.3 mph10.1 kmh 29.53 in1000.0 mb 0.00 in0.0 mm 0.00 in0.0 mm 0.00 in0.0 mm
01:55 PM 73.8°F23.2°C 57.2°F14.0°C 54% 4.4 mph SSW7.1 kmh SSW 8.5 mph13.7 kmh 29.53 in1000.0 mb 0.00 in0.0 mm 0.00 in0.0 mm 0.00 in0.0 mm
02:00 PM 73.4°F23.0°C 55.4°F13.0°C 55% 5.1 mph SW8.2 kmh SW 8.7 mph14.0 kmh 29.53 in1000.0 mb 0.00 in0.0 mm 0.00 in0.0 mm 0.00 in0.0 mm
02:05 PM 73.8°F23.2°C 57.2°F14.0°C 54% 5.1 mph SW8.2 kmh SW 8.7 mph14.0 kmh 29.53 in1000.0 mb 0.00 in0.0 mm 0.00 in0.0 mm 0.00 in0.0 mm
02:10 PM 73.4°F23.0°C 55.4°F13.0°C 54% 5.8 mph SW9.3 kmh SW 8.5 mph13.7 kmh 29.53 in1000.0 mb 0.00 in0.0 mm 0.00 in0.0 mm 0.00 in0.0 mm
02:15 PM 73.0°F22.8°C 55.4°F13.0°C 54% 6.5 mph SSW10.5 kmh SSW 11.9 mph19.2 kmh 29.53 in1000.0 mb 0.00 in0.0 mm 0.00 in0.0 mm 0.00 in0.0 mm
02:20 PM 73.2°F22.9°C 55.4°F13.0°C 53% 6.1 mph SSW9.8 kmh SSW 11.9 mph19.2 kmh 29.53 in1000.0 mb 0.00 in0.0 mm 0.00 in0.0 mm 0.00 in0.0 mm
02:25 PM 72.9°F22.7°C 55.4°F13.0°C 53% 5.3 mph SW8.5 kmh SW 8.7 mph14.0 kmh 29.53 in1000.0 mb 0.00 in0.0 mm 0.00 in0.0 mm 0.00 in0.0 mm
02:30 PM 72.7°F22.6°C 55.4°F13.0°C 53% 5.1 mph SW8.2 kmh SW 8.7 mph14.0 kmh 29.53 in1000.0 mb 0.00 in0.0 mm 0.00 in0.0 mm 0.00 in0.0 mm
02:35 PM 72.9°F22.7°C 55.4°F13.0°C 53% 4.0 mph SW6.4 kmh SW 7.8 mph12.6 kmh 29.53 in1000.0 mb 0.00 in0.0 mm 0.00 in0.0 mm 0.00 in0.0 mm
02:40 PM 73.2°F22.9°C 55.4°F13.0°C 53% 4.3 mph SW6.9 kmh SW 7.4 mph11.9 kmh 29.50 in999.0 mb 0.00 in0.0 mm 0.00 in0.0 mm 0.00 in0.0 mm
02:45 PM 73.6°F23.1°C 55.4°F13.0°C 51% 4.2 mph SW6.8 kmh SW 7.4 mph11.9 kmh 29.50 in999.0 mb 0.00 in0.0 mm 0.00 in0.0 mm 0.00 in0.0 mm
02:50 PM 74.5°F23.6°C 55.4°F13.0°C 51% 3.8 mph SW6.1 kmh SW 6.3 mph10.1 kmh 29.50 in999.0 mb 0.00 in0.0 mm 0.00 in0.0 mm 0.00 in0.0 mm
02:55 PM 73.8°F23.2°C 55.4°F13.0°C 51% 4.8 mph SW7.7 kmh SW 9.8 mph15.8 kmh 29.50 in999.0 mb 0.00 in0.0 mm 0.00 in0.0 mm 0.00 in0.0 mm
03:00 PM 73.0°F22.8°C 55.4°F13.0°C 52% 5.3 mph SW8.5 kmh SW 9.8 mph15.8 kmh 29.50 in999.0 mb 0.00 in0.0 mm 0.00 in0.0 mm 0.00 in0.0 mm
03:05 PM 72.9°F22.7°C 55.4°F13.0°C 52% 5.5 mph SSW8.9 kmh SSW 8.5 mph13.7 kmh 29.50 in999.0 mb 0.00 in0.0 mm 0.00 in0.0 mm 0.00 in0.0 mm
03:10 PM 72.7°F22.6°C 55.4°F13.0°C 52% 5.2 mph SSW8.4 kmh SSW 8.5 mph13.7 kmh 29.50 in999.0 mb 0.00 in0.0 mm 0.00 in0.0 mm 0.00 in0.0 mm
03:15 PM 73.0°F22.8°C 55.4°F13.0°C 52% 3.5 mph S5.6 kmh S 8.5 mph13.7 kmh 29.50 in999.0 mb 0.00 in0.0 mm 0.00 in0.0 mm 0.00 in0.0 mm
03:20 PM 73.4°F23.0°C 55.4°F13.0°C 51% 3.2 mph S5.1 kmh S 5.4 mph8.7 kmh 29.50 in999.0 mb 0.00 in0.0 mm 0.00 in0.0 mm 0.00 in0.0 mm
03:25 PM 73.8°F23.2°C 55.4°F13.0°C 51% 4.4 mph SSW7.1 kmh SSW 14.1 mph22.7 kmh 29.50 in999.0 mb 0.00 in0.0 mm 0.00 in0.0 mm 0.00 in0.0 mm
03:30 PM 75.6°F24.2°C 57.2°F14.0°C 51% 4.7 mph SSW7.6 kmh SSW 14.1 mph22.7 kmh 29.50 in999.0 mb 0.00 in0.0 mm 0.00 in0.0 mm 0.00 in0.0 mm
03:35 PM 74.3°F23.5°C 55.4°F13.0°C 50% 5.4 mph SSW8.7 kmh SSW 10.7 mph17.2 kmh 29.50 in999.0 mb 0.00 in0.0 mm 0.00 in0.0 mm 0.00 in0.0 mm
03:40 PM 73.6°F23.1°C 55.4°F13.0°C 51% 5.5 mph SSW8.9 kmh SSW 10.7 mph17.2 kmh 29.50 in999.0 mb 0.00 in0.0 mm 0.00 in0.0 mm 0.00 in0.0 mm
03:45 PM 73.4°F23.0°C 55.4°F13.0°C 51% 5.1 mph SSW8.2 kmh SSW 8.5 mph13.7 kmh 29.50 in999.0 mb 0.00 in0.0 mm 0.00 in0.0 mm 0.00 in0.0 mm
03:50 PM 73.8°F23.2°C 55.4°F13.0°C 51% 5.5 mph SSW8.9 kmh SSW 8.5 mph13.7 kmh 29.50 in999.0 mb 0.00 in0.0 mm 0.00 in0.0 mm 0.00 in0.0 mm
03:55 PM 73.8°F23.2°C 55.4°F13.0°C 50% 4.9 mph SW7.9 kmh SW 8.5 mph13.7 kmh 29.50 in999.0 mb 0.00 in0.0 mm 0.00 in0.0 mm 0.00 in0.0 mm
04:00 PM 75.2°F24.0°C 55.4°F13.0°C 50% 3.7 mph SW6.0 kmh SW 8.7 mph14.0 kmh 29.50 in999.0 mb 0.00 in0.0 mm 0.00 in0.0 mm 0.00 in0.0 mm
04:05 PM 75.6°F24.2°C 55.4°F13.0°C 50% 4.7 mph SW7.6 kmh SW 8.7 mph14.0 kmh 29.50 in999.0 mb 0.00 in0.0 mm 0.00 in0.0 mm 0.00 in0.0 mm
04:10 PM 75.4°F24.1°C 55.4°F13.0°C 50% 5.5 mph WSW8.9 kmh WSW 8.7 mph14.0 kmh 29.50 in999.0 mb 0.00 in0.0 mm 0.00 in0.0 mm 0.00 in0.0 mm
04:15 PM 75.2°F24.0°C 55.4°F13.0°C 50% 4.9 mph SW7.9 kmh SW 7.8 mph12.6 kmh 29.50 in999.0 mb 0.00 in0.0 mm 0.00 in0.0 mm 0.00 in0.0 mm
04:20 PM 75.0°F23.9°C 55.4°F13.0°C 50% 3.8 mph SSW6.1 kmh SSW 6.5 mph10.5 kmh 29.50 in999.0 mb 0.00 in0.0 mm 0.00 in0.0 mm 0.00 in0.0 mm
04:25 PM 73.6°F23.1°C 55.4°F13.0°C 51% 3.3 mph SW5.3 kmh SW 6.3 mph10.1 kmh 29.50 in999.0 mb 0.00 in0.0 mm 0.00 in0.0 mm 0.00 in0.0 mm
04:30 PM 72.5°F22.5°C 55.4°F13.0°C 52% 6.1 mph SSW9.8 kmh SSW 19.2 mph30.9 kmh 29.50 in999.0 mb 0.00 in0.0 mm 0.00 in0.0 mm 0.00 in0.0 mm
04:35 PM 71.6°F22.0°C 53.6°F12.0°C 53% 9.2 mph S14.8 kmh S 19.2 mph30.9 kmh 29.50 in999.0 mb 0.00 in0.0 mm 0.00 in0.0 mm 0.00 in0.0 mm
04:40 PM 70.2°F21.2°C 53.6°F12.0°C 54% 11.7 mph S18.8 kmh S 16.6 mph26.7 kmh 29.50 in999.0 mb 0.00 in0.0 mm 0.00 in0.0 mm 0.00 in0.0 mm
04:45 PM 68.5°F20.3°C 51.8°F11.0°C 56% 11.3 mph S18.2 kmh S 17.0 mph27.4 kmh 29.50 in999.0 mb 0.00 in0.0 mm 0.00 in0.0 mm 0.00 in0.0 mm
04:50 PM 68.5°F20.3°C 53.6°F12.0°C 59% 8.7 mph S14.0 kmh S 17.0 mph27.4 kmh 29.50 in999.0 mb 0.00 in0.0 mm 0.00 in0.0 mm 0.00 in0.0 mm
04:55 PM 68.0°F20.0°C 53.6°F12.0°C 59% 7.3 mph S11.7 kmh S 12.3 mph19.8 kmh 29.50 in999.0 mb 0.00 in0.0 mm 0.00 in0.0 mm 0.00 in0.0 mm
05:00 PM 67.5°F19.7°C 53.6°F12.0°C 61% 7.5 mph SSE12.1 kmh SSE 12.3 mph19.8 kmh 29.50 in999.0 mb 0.00 in0.0 mm 0.00 in0.0 mm 0.00 in0.0 mm
05:05 PM 67.1°F19.5°C 53.6°F12.0°C 61% 7.3 mph S11.7 kmh S 14.5 mph23.3 kmh 29.50 in999.0 mb 0.00 in0.0 mm 0.00 in0.0 mm 0.00 in0.0 mm
05:10 PM 66.7°F19.3°C 53.6°F12.0°C 62% 7.2 mph S11.6 kmh S 14.5 mph23.3 kmh 29.50 in999.0 mb 0.00 in0.0 mm 0.00 in0.0 mm 0.00 in0.0 mm
05:15 PM 66.6°F19.2°C 53.6°F12.0°C 62% 5.9 mph S9.5 kmh S 9.6 mph15.4 kmh 29.50 in999.0 mb 0.00 in0.0 mm 0.00 in0.0 mm 0.00 in0.0 mm
05:20 PM 66.6°F19.2°C 53.6°F12.0°C 63% 5.4 mph SSE8.7 kmh SSE 7.4 mph11.9 kmh 29.50 in999.0 mb 0.00 in0.0 mm 0.00 in0.0 mm 0.00 in0.0 mm
05:25 PM 66.6°F19.2°C 53.6°F12.0°C 63% 6.5 mph SSE10.5 kmh SSE 12.5 mph20.1 kmh 29.50 in999.0 mb 0.00 in0.0 mm 0.00 in0.0 mm 0.00 in0.0 mm
05:30 PM 66.6°F19.2°C 53.6°F12.0°C 63% 6.1 mph S9.8 kmh S 12.5 mph20.1 kmh 29.50 in999.0 mb 0.00 in0.0 mm 0.00 in0.0 mm 0.00 in0.0 mm
05:35 PM 66.6°F19.2°C 55.4°F13.0°C 64% 5.1 mph SSE8.2 kmh SSE 9.2 mph14.8 kmh 29.50 in999.0 mb 0.00 in0.0 mm 0.00 in0.0 mm 0.00 in0.0 mm
05:40 PM 66.4°F19.1°C 53.6°F12.0°C 64% 5.1 mph S8.2 kmh S 9.2 mph14.8 kmh 29.50 in999.0 mb 0.00 in0.0 mm 0.00 in0.0 mm 0.00 in0.0 mm
05:45 PM 66.4°F19.1°C 53.6°F12.0°C 64% 4.4 mph S7.1 kmh S 6.0 mph9.7 kmh 29.50 in999.0 mb 0.00 in0.0 mm 0.00 in0.0 mm 0.00 in0.0 mm
05:50 PM 66.2°F19.0°C 53.6°F12.0°C 64% 3.7 mph S6.0 kmh S 5.6 mph9.0 kmh 29.50 in999.0 mb 0.00 in0.0 mm 0.00 in0.0 mm 0.00 in0.0 mm
05:55 PM 66.2°F19.0°C 53.6°F12.0°C 64% 3.7 mph SSW6.0 kmh SSW 6.3 mph10.1 kmh 29.50 in999.0 mb 0.00 in0.0 mm 0.00 in0.0 mm 0.00 in0.0 mm
06:00 PM 66.2°F19.0°C 53.6°F12.0°C 64% 4.1 mph SSW6.6 kmh SSW 6.5 mph10.5 kmh 29.50 in999.0 mb 0.00 in0.0 mm 0.00 in0.0 mm 0.00 in0.0 mm
06:05 PM 66.2°F19.0°C 53.6°F12.0°C 64% 5.5 mph S8.9 kmh S 10.5 mph16.9 kmh 29.50 in999.0 mb 0.00 in0.0 mm 0.00 in0.0 mm 0.00 in0.0 mm
06:10 PM 66.4°F19.1°C 55.4°F13.0°C 65% 6.2 mph S10.0 kmh S 10.5 mph16.9 kmh 29.50 in999.0 mb 0.00 in0.0 mm 0.00 in0.0 mm 0.00 in0.0 mm
06:15 PM 66.4°F19.1°C 55.4°F13.0°C 65% 5.4 mph S8.7 kmh S 7.4 mph11.9 kmh 29.50 in999.0 mb 0.00 in0.0 mm 0.00 in0.0 mm 0.00 in0.0 mm
06:20 PM 66.4°F19.1°C 55.4°F13.0°C 65% 4.5 mph S7.2 kmh S 10.3 mph16.6 kmh 29.50 in999.0 mb 0.00 in0.0 mm 0.00 in0.0 mm 0.00 in0.0 mm
06:25 PM 66.4°F19.1°C 55.4°F13.0°C 66% 4.8 mph S7.7 kmh S 10.3 mph16.6 kmh 29.50 in999.0 mb 0.00 in0.0 mm 0.00 in0.0 mm 0.00 in0.0 mm
06:30 PM 66.4°F19.1°C 55.4°F13.0°C 66% 4.8 mph S7.7 kmh S 7.4 mph11.9 kmh 29.50 in999.0 mb 0.00 in0.0 mm 0.00 in0.0 mm 0.00 in0.0 mm
06:35 PM 66.2°F19.0°C 55.4°F13.0°C 66% 4.2 mph S6.8 kmh S 6.9 mph11.1 kmh 29.50 in999.0 mb 0.00 in0.0 mm 0.00 in0.0 mm 0.00 in0.0 mm
06:40 PM 66.0°F18.9°C 55.4°F13.0°C 68% 4.7 mph SSW7.6 kmh SSW 6.9 mph11.1 kmh 29.50 in999.0 mb 0.00 in0.0 mm 0.00 in0.0 mm 0.00 in0.0 mm
06:45 PM 66.0°F18.9°C 55.4°F13.0°C 68% 3.7 mph SW6.0 kmh SW 6.0 mph9.7 kmh 29.50 in999.0 mb 0.00 in0.0 mm 0.00 in0.0 mm 0.00 in0.0 mm
06:50 PM 65.8°F18.8°C 55.4°F13.0°C 68% 3.1 mph SW5.0 kmh SW 6.0 mph9.7 kmh 29.50 in999.0 mb 0.00 in0.0 mm 0.00 in0.0 mm 0.00 in0.0 mm
06:55 PM 65.7°F18.7°C 55.4°F13.0°C 69% 3.2 mph S5.1 kmh S 7.8 mph12.6 kmh 29.50 in999.0 mb 0.00 in0.0 mm 0.00 in0.0 mm 0.00 in0.0 mm
07:00 PM 65.8°F18.8°C 55.4°F13.0°C 69% 3.5 mph SSE5.6 kmh SSE 7.8 mph12.6 kmh 29.50 in999.0 mb 0.00 in0.0 mm 0.00 in0.0 mm 0.00 in0.0 mm
07:05 PM 65.7°F18.7°C 55.4°F13.0°C 69% 4.3 mph SSE6.9 kmh SSE 7.6 mph12.2 kmh 29.50 in999.0 mb 0.00 in0.0 mm 0.00 in0.0 mm 0.00 in0.0 mm
07:10 PM 65.7°F18.7°C 55.4°F13.0°C 69% 4.7 mph S7.6 kmh S 7.6 mph12.2 kmh 29.50 in999.0 mb 0.00 in0.0 mm 0.00 in0.0 mm 0.00 in0.0 mm
07:15 PM 65.5°F18.6°C 55.4°F13.0°C 70% 4.2 mph S6.8 kmh S 6.3 mph10.1 kmh 29.50 in999.0 mb 0.00 in0.0 mm 0.00 in0.0 mm 0.00 in0.0 mm
07:20 PM 65.3°F18.5°C 55.4°F13.0°C 70% 3.5 mph S5.6 kmh S 6.3 mph10.1 kmh 29.50 in999.0 mb 0.00 in0.0 mm 0.00 in0.0 mm 0.00 in0.0 mm
07:25 PM 65.1°F18.4°C 55.4°F13.0°C 71% 3.0 mph S4.8 kmh S 4.3 mph6.9 kmh 29.50 in999.0 mb 0.00 in0.0 mm 0.00 in0.0 mm 0.00 in0.0 mm
07:30 PM 64.9°F18.3°C 55.4°F13.0°C 71% 2.8 mph S4.5 kmh S 4.3 mph6.9 kmh 29.50 in999.0 mb 0.00 in0.0 mm 0.00 in0.0 mm 0.00 in0.0 mm
07:35 PM 64.8°F18.2°C 55.4°F13.0°C 71% 2.3 mph SSW3.7 kmh SSW 3.4 mph5.5 kmh 29.50 in999.0 mb 0.00 in0.0 mm 0.00 in0.0 mm 0.00 in0.0 mm
07:40 PM 64.4°F18.0°C 55.4°F13.0°C 70% 1.6 mph SSW2.6 kmh SSW 3.4 mph5.5 kmh 29.50 in999.0 mb 0.00 in0.0 mm 0.00 in0.0 mm 0.00 in0.0 mm
07:45 PM 64.2°F17.9°C 55.4°F13.0°C 70% 1.4 mph SSW2.3 kmh SSW 2.7 mph4.3 kmh 29.50 in999.0 mb 0.00 in0.0 mm 0.00 in0.0 mm 0.00 in0.0 mm
07:50 PM 64.0°F17.8°C 53.6°F12.0°C 69% 2.1 mph S3.4 kmh S 3.6 mph5.8 kmh 29.50 in999.0 mb 0.00 in0.0 mm 0.00 in0.0 mm 0.00 in0.0 mm
07:55 PM 63.7°F17.6°C 53.6°F12.0°C 70% 2.4 mph SSE3.9 kmh SSE 3.8 mph6.1 kmh 29.50 in999.0 mb 0.00 in0.0 mm 0.00 in0.0 mm 0.00 in0.0 mm
08:00 PM 63.5°F17.5°C 53.6°F12.0°C 70% 2.1 mph SSE3.4 kmh SSE 3.8 mph6.1 kmh 29.50 in999.0 mb 0.00 in0.0 mm 0.00 in0.0 mm 0.00 in0.0 mm
08:05 PM 63.3°F17.4°C 53.6°F12.0°C 70% 1.9 mph SSE3.1 kmh SSE 2.7 mph4.3 kmh 29.50 in999.0 mb 0.00 in0.0 mm 0.00 in0.0 mm 0.00 in0.0 mm
08:10 PM 63.1°F17.3°C 53.6°F12.0°C 70% 1.5 mph SSE2.4 kmh SSE 3.4 mph5.5 kmh 29.50 in999.0 mb 0.00 in0.0 mm 0.00 in0.0 mm 0.00 in0.0 mm
08:15 PM 63.0°F17.2°C 53.6°F12.0°C 69% 1.4 mph SSE2.3 kmh SSE 3.4 mph5.5 kmh 29.50 in999.0 mb 0.00 in0.0 mm 0.00 in0.0 mm 0.00 in0.0 mm
08:20 PM 62.8°F17.1°C 51.8°F11.0°C 69% 1.9 mph SSE3.1 kmh SSE 3.4 mph5.5 kmh 29.50 in999.0 mb 0.00 in0.0 mm 0.00 in0.0 mm 0.00 in0.0 mm
08:25 PM 62.8°F17.1°C 51.8°F11.0°C 69% 1.7 mph SSE2.7 kmh SSE 2.7 mph4.3 kmh 29.50 in999.0 mb 0.00 in0.0 mm 0.00 in0.0 mm 0.00 in0.0 mm
08:30 PM 62.6°F17.0°C 51.8°F11.0°C 69% 1.8 mph S2.9 kmh S 3.8 mph6.1 kmh 29.50 in999.0 mb 0.00 in0.0 mm 0.00 in0.0 mm 0.00 in0.0 mm
08:35 PM 62.6°F17.0°C 51.8°F11.0°C 68% 2.5 mph S4.0 kmh S 4.0 mph6.4 kmh 29.50 in999.0 mb 0.00 in0.0 mm 0.00 in0.0 mm 0.00 in0.0 mm
08:40 PM 62.4°F16.9°C 53.6°F12.0°C 70% 2.6 mph SSW4.2 kmh SSW 4.0 mph6.4 kmh 29.50 in999.0 mb 0.00 in0.0 mm 0.00 in0.0 mm 0.00 in0.0 mm
08:45 PM 62.4°F16.9°C 53.6°F12.0°C 70% 2.4 mph SSW3.9 kmh SSW 3.6 mph5.8 kmh 29.50 in999.0 mb 0.00 in0.0 mm 0.00 in0.0 mm 0.00 in0.0 mm
08:50 PM 62.2°F16.8°C 51.8°F11.0°C 70% 2.8 mph SSW4.5 kmh SSW 3.6 mph5.8 kmh 29.50 in999.0 mb 0.00 in0.0 mm 0.00 in0.0 mm 0.00 in0.0 mm
08:55 PM 62.1°F16.7°C 51.8°F11.0°C 70% 2.6 mph S4.2 kmh S 3.4 mph5.5 kmh 29.50 in999.0 mb 0.00 in0.0 mm 0.00 in0.0 mm 0.00 in0.0 mm
09:00 PM 62.1°F16.7°C 51.8°F11.0°C 70% 2.7 mph S4.3 kmh S 3.6 mph5.8 kmh 29.50 in999.0 mb 0.00 in0.0 mm 0.00 in0.0 mm 0.00 in0.0 mm
09:05 PM 61.9°F16.6°C 51.8°F11.0°C 70% 2.8 mph S4.5 kmh S 3.6 mph5.8 kmh 29.50 in999.0 mb 0.00 in0.0 mm 0.00 in0.0 mm 0.00 in0.0 mm
09:10 PM 61.9°F16.6°C 51.8°F11.0°C 70% 2.7 mph S4.3 kmh S 2.9 mph4.7 kmh 29.50 in999.0 mb 0.00 in0.0 mm 0.00 in0.0 mm 0.00 in0.0 mm
09:15 PM 61.9°F16.6°C 51.8°F11.0°C 70% 3.1 mph S5.0 kmh S 4.7 mph7.6 kmh 29.50 in999.0 mb 0.00 in0.0 mm 0.00 in0.0 mm 0.00 in0.0 mm
09:20 PM 61.7°F16.5°C 51.8°F11.0°C 70% 3.0 mph S4.8 kmh S 4.7 mph7.6 kmh 29.50 in999.0 mb 0.00 in0.0 mm 0.00 in0.0 mm 0.00 in0.0 mm
09:25 PM 61.5°F16.4°C 51.8°F11.0°C 70% 2.4 mph S3.9 kmh S 3.4 mph5.5 kmh 29.50 in999.0 mb 0.00 in0.0 mm 0.00 in0.0 mm 0.00 in0.0 mm
09:30 PM 61.3°F16.3°C 51.8°F11.0°C 70% 1.8 mph S2.9 kmh S 2.9 mph4.7 kmh 29.50 in999.0 mb 0.00 in0.0 mm 0.00 in0.0 mm 0.00 in0.0 mm
09:35 PM 61.0°F16.1°C 51.8°F11.0°C 70% 1.5 mph S2.4 kmh S 2.2 mph3.5 kmh 29.50 in999.0 mb 0.00 in0.0 mm 0.00 in0.0 mm 0.00 in0.0 mm
09:40 PM 60.8°F16.0°C 51.8°F11.0°C 70% 1.9 mph S3.1 kmh S 3.1 mph5.0 kmh 29.50 in999.0 mb 0.00 in0.0 mm 0.00 in0.0 mm 0.00 in0.0 mm
09:45 PM 60.8°F16.0°C 51.8°F11.0°C 70% 2.3 mph S3.7 kmh S 3.4 mph5.5 kmh 29.50 in999.0 mb 0.00 in0.0 mm 0.00 in0.0 mm 0.00 in0.0 mm
09:50 PM 60.6°F15.9°C 51.8°F11.0°C 70% 2.5 mph SSE4.0 kmh SSE 3.4 mph5.5 kmh 29.50 in999.0 mb 0.00 in0.0 mm 0.00 in0.0 mm 0.00 in0.0 mm
09:55 PM 60.4°F15.8°C 50.0°F10.0°C 70% 2.0 mph S3.2 kmh S 2.7 mph4.3 kmh 29.50 in999.0 mb 0.00 in0.0 mm 0.00 in0.0 mm 0.00 in0.0 mm
10:00 PM 60.1°F15.6°C 50.0°F10.0°C 70% 1.9 mph S3.1 kmh S 2.7 mph4.3 kmh 29.50 in999.0 mb 0.00 in0.0 mm 0.00 in0.0 mm 0.00 in0.0 mm
10:05 PM 59.9°F15.5°C 50.0°F10.0°C 70% 1.5 mph S2.4 kmh S 2.2 mph3.5 kmh 29.50 in999.0 mb 0.00 in0.0 mm 0.00 in0.0 mm 0.00 in0.0 mm
10:10 PM 59.9°F15.5°C 50.0°F10.0°C 70% 1.2 mph S1.9 kmh S 2.5 mph4.0 kmh 29.50 in999.0 mb 0.00 in0.0 mm 0.00 in0.0 mm 0.00 in0.0 mm
10:15 PM 59.9°F15.5°C 50.0°F10.0°C 70% 1.8 mph SSW2.9 kmh SSW 3.1 mph5.0 kmh 29.50 in999.0 mb 0.00 in0.0 mm 0.00 in0.0 mm 0.00 in0.0 mm
10:20 PM 59.9°F15.5°C 50.0°F10.0°C 70% 2.0 mph SSW3.2 kmh SSW 3.1 mph5.0 kmh 29.50 in999.0 mb 0.00 in0.0 mm 0.00 in0.0 mm 0.00 in0.0 mm
10:25 PM 59.9°F15.5°C 50.0°F10.0°C 69% 2.0 mph S3.2 kmh S 3.8 mph6.1 kmh 29.50 in999.0 mb 0.00 in0.0 mm 0.00 in0.0 mm 0.00 in0.0 mm
10:30 PM 59.9°F15.5°C 50.0°F10.0°C 69% 1.9 mph S3.1 kmh S 3.8 mph6.1 kmh 29.50 in999.0 mb 0.00 in0.0 mm 0.00 in0.0 mm 0.00 in0.0 mm
10:35 PM 59.7°F15.4°C 50.0°F10.0°C 70% 1.9 mph SSW3.1 kmh SSW 3.1 mph5.0 kmh 29.50 in999.0 mb 0.00 in0.0 mm 0.00 in0.0 mm 0.00 in0.0 mm
10:40 PM 59.7°F15.4°C 50.0°F10.0°C 70% 2.3 mph S3.7 kmh S 3.6 mph5.8 kmh 29.50 in999.0 mb 0.00 in0.0 mm 0.00 in0.0 mm 0.00 in0.0 mm
10:45 PM 59.7°F15.4°C 50.0°F10.0°C 70% 2.9 mph S4.7 kmh S 3.6 mph5.8 kmh 29.50 in999.0 mb 0.00 in0.0 mm 0.00 in0.0 mm 0.00 in0.0 mm
10:50 PM 59.9°F15.5°C 50.0°F10.0°C 70% 3.3 mph SSW5.3 kmh SSW 5.4 mph8.7 kmh 29.50 in999.0 mb 0.00 in0.0 mm 0.00 in0.0 mm 0.00 in0.0 mm
10:55 PM 59.9°F15.5°C 51.8°F11.0°C 71% 4.1 mph SSW6.6 kmh SSW 6.0 mph9.7 kmh 29.50 in999.0 mb 0.00 in0.0 mm 0.00 in0.0 mm 0.00 in0.0 mm
11:00 PM 59.9°F15.5°C 51.8°F11.0°C 71% 4.2 mph SW6.8 kmh SW 6.0 mph9.7 kmh 29.50 in999.0 mb 0.00 in0.0 mm 0.00 in0.0 mm 0.00 in0.0 mm
11:05 PM 59.9°F15.5°C 51.8°F11.0°C 72% 3.1 mph SW5.0 kmh SW 4.3 mph6.9 kmh 29.50 in999.0 mb 0.00 in0.0 mm 0.00 in0.0 mm 0.00 in0.0 mm
11:10 PM 59.9°F15.5°C 51.8°F11.0°C 71% 2.7 mph SW4.3 kmh SW 4.7 mph7.6 kmh 29.50 in999.0 mb 0.00 in0.0 mm 0.00 in0.0 mm 0.00 in0.0 mm
11:15 PM 59.9°F15.5°C 51.8°F11.0°C 71% 3.2 mph S5.1 kmh S 4.7 mph7.6 kmh 29.50 in999.0 mb 0.00 in0.0 mm 0.00 in0.0 mm 0.00 in0.0 mm
11:20 PM 59.9°F15.5°C 51.8°F11.0°C 72% 2.9 mph S4.7 kmh S 4.7 mph7.6 kmh 29.50 in999.0 mb 0.00 in0.0 mm 0.00 in0.0 mm 0.00 in0.0 mm
11:25 PM 59.9°F15.5°C 51.8°F11.0°C 72% 2.7 mph S4.3 kmh S 4.9 mph7.9 kmh 29.50 in999.0 mb 0.00 in0.0 mm 0.00 in0.0 mm 0.00 in0.0 mm
11:30 PM 59.9°F15.5°C 51.8°F11.0°C 72% 2.9 mph S4.7 kmh S 4.9 mph7.9 kmh 29.50 in999.0 mb 0.00 in0.0 mm 0.00 in0.0 mm 0.00 in0.0 mm
11:35 PM 59.9°F15.5°C 51.8°F11.0°C 72% 3.3 mph S5.3 kmh S 6.3 mph10.1 kmh 29.50 in999.0 mb 0.00 in0.0 mm 0.00 in0.0 mm 0.00 in0.0 mm
11:40 PM 59.9°F15.5°C 51.8°F11.0°C 71% 3.9 mph S6.3 kmh S 6.5 mph10.5 kmh 29.50 in999.0 mb 0.00 in0.0 mm 0.00 in0.0 mm 0.00 in0.0 mm
11:45 PM 59.7°F15.4°C 50.0°F10.0°C 71% 4.2 mph S6.8 kmh S 6.5 mph10.5 kmh 29.50 in999.0 mb 0.00 in0.0 mm 0.00 in0.0 mm 0.00 in0.0 mm
11:50 PM 59.5°F15.3°C 50.0°F10.0°C 71% 4.6 mph S7.4 kmh S 6.5 mph10.5 kmh 29.50 in999.0 mb 0.00 in0.0 mm 0.00 in0.0 mm 0.00 in0.0 mm
11:55 PM 59.5°F15.3°C 51.8°F11.0°C 72% 4.0 mph S6.4 kmh S 5.8 mph9.3 kmh 29.50 in999.0 mb 0.00 in0.0 mm 0.00 in0.0 mm 0.00 in0.0 mm